Time;durP1;ratioP1;P1;durP2;ratioP2;P2;SDS_P1;SDS_P2;PMS_P1;PMS_P2;Temp;Humidity;BMP_temperature;BMP_pressure;BME280_temperature;BME280_humidity;BME280_pressure;Samples;Min_cycle;Max_cycle;Signal;HPM_P1;HPM_P2
2022/07/06 00:01:01;;;;;;;5.47;3.37;;;;;;;11.49;83.08;102416.56;4956963;29;20046;-78
2022/07/06 00:03:27;;;;;;;4.87;3.40;;;;;;;11.47;82.54;102426.78;4921521;29;20480;-78
2022/07/06 00:05:52;;;;;;;5.90;3.00;;;;;;;11.42;83.08;102426.44;4936851;29;20031;-78
2022/07/06 00:08:17;;;;;;;6.50;3.30;;;;;;;11.46;83.98;102428.66;4955063;29;20027;-78
2022/07/06 00:10:43;;;;;;;7.03;3.20;;;;;;;11.40;83.11;102425.81;4955326;29;20027;-78
2022/07/06 00:13:09;;;;;;;6.20;3.50;;;;;;;11.38;84.16;102430.53;4938270;29;20027;-78
2022/07/06 00:15:34;;;;;;;4.97;3.60;;;;;;;11.40;84.22;102437.50;4939732;29;20035;-78
2022/07/06 00:18:00;;;;;;;5.97;3.63;;;;;;;11.36;83.76;102440.75;4955057;29;20042;-78
2022/07/06 00:20:25;;;;;;;6.33;3.40;;;;;;;11.35;84.07;102429.03;4954302;29;20023;-78
2022/07/06 00:22:51;;;;;;;6.17;3.70;;;;;;;11.32;84.13;102434.81;4955920;29;20031;-78
2022/07/06 00:25:16;;;;;;;6.73;3.63;;;;;;;11.31;83.98;102442.13;4953634;29;20036;-78
2022/07/06 00:27:41;;;;;;;5.87;3.50;;;;;;;11.29;84.30;102438.72;4955175;29;20027;-78
2022/07/06 00:30:07;;;;;;;5.87;3.20;;;;;;;11.29;83.64;102444.16;4924181;29;20361;-78
2022/07/06 00:32:33;;;;;;;6.90;3.60;;;;;;;11.22;84.16;102431.47;4936446;29;20031;-78
2022/07/06 00:34:58;;;;;;;5.83;3.20;;;;;;;11.29;84.02;102444.16;4929537;29;20027;-78
2022/07/06 00:37:23;;;;;;;6.47;3.53;;;;;;;11.35;84.58;102439.06;4930697;29;20055;-78
2022/07/06 00:43:10;;;;;;;6.43;3.43;;;;;;;11.25;85.44;102437.41;4945818;29;20469;-78
2022/07/06 00:45:36;;;;;;;8.30;3.90;;;;;;;11.21;85.40;102427.94;4954754;29;20027;-78
2022/07/06 00:48:02;;;;;;;6.60;3.67;;;;;;;11.19;85.14;102438.09;4956382;29;20034;-78
2022/07/06 00:50:28;;;;;;;7.03;3.60;;;;;;;11.20;85.04;102431.66;4945949;29;20031;-78
2022/07/06 00:52:58;;;;;;;6.17;3.80;;;;;;;11.18;84.91;102430.13;4948107;28;20029;-78
2022/07/06 00:55:27;;;;;;;5.53;3.70;;;;;;;11.22;85.21;102437.75;4941202;29;20137;-78
2022/07/06 00:57:53;;;;;;;6.57;3.80;;;;;;;11.22;85.54;102437.75;4931822;29;20031;-78
2022/07/06 01:00:21;;;;;;;4.67;3.60;;;;;;;11.18;85.34;102431.00;4954113;29;20154;-78
2022/07/06 01:02:47;;;;;;;5.73;3.53;;;;;;;11.24;84.96;102433.00;4941476;29;20035;-78
2022/07/06 01:05:14;;;;;;;6.50;3.80;;;;;;;11.15;85.13;102424.06;4951682;29;20033;-78
2022/07/06 01:07:41;;;;;;;6.83;3.80;;;;;;;11.17;85.45;102428.47;4932069;29;20078;-78
2022/07/06 01:10:08;;;;;;;4.37;3.97;;;;;;;11.06;85.71;102427.81;4936900;29;20087;-78
2022/07/06 01:12:35;;;;;;;5.60;4.03;;;;;;;11.13;85.60;102430.69;4954974;29;20110;-78
2022/07/06 01:15:03;;;;;;;8.30;4.03;;;;;;;11.10;85.69;102431.88;4954059;29;20456;-78
2022/07/06 01:17:29;;;;;;;6.40;4.10;;;;;;;11.08;85.74;102423.09;4936417;29;20038;-78
2022/07/06 01:19:55;;;;;;;8.17;3.90;;;;;;;11.11;85.42;102430.00;4952031;29;20027;-78
2022/07/06 01:22:20;;;;;;;5.87;3.80;;;;;;;11.10;85.44;102422.91;4954811;29;20026;-78
2022/07/06 01:24:45;;;;;;;6.40;4.10;;;;;;;11.06;85.40;102430.53;4952426;29;20066;-78
2022/07/06 01:27:11;;;;;;;6.33;3.90;;;;;;;11.08;85.54;102433.06;4947296;29;20038;-78
2022/07/06 01:29:36;;;;;;;6.77;4.20;;;;;;;11.04;85.94;102429.84;4953381;29;20448;-80
2022/07/06 01:32:02;;;;;;;8.03;3.97;;;;;;;10.97;85.66;102416.19;4952738;29;20039;-78
2022/07/06 01:34:27;;;;;;;7.03;4.20;;;;;;;11.00;85.43;102425.81;4953308;29;20075;-78
2022/07/06 01:36:53;;;;;;;5.93;4.40;;;;;;;10.97;85.59;102437.88;4953432;29;20046;-78
2022/07/06 01:39:18;;;;;;;6.43;4.30;;;;;;;10.94;85.80;102426.53;4953936;29;20093;-78
2022/07/06 01:41:44;;;;;;;7.37;4.27;;;;;;;10.92;85.89;102421.28;4954770;29;20031;-79
2022/07/06 01:44:10;;;;;;;8.50;4.43;;;;;;;10.85;85.91;102414.84;4950874;29;20031;-78
2022/07/06 01:46:35;;;;;;;7.90;4.73;;;;;;;10.87;85.98;102417.41;4926301;29;20388;-78
2022/07/06 01:49:01;;;;;;;5.97;4.20;;;;;;;10.86;85.94;102421.13;4953090;29;20383;-79
2022/07/06 01:51:26;;;;;;;7.53;4.40;;;;;;;10.83;86.25;102427.75;4954805;29;20109;-78
2022/07/06 01:53:52;;;;;;;6.93;4.30;;;;;;;10.87;86.15;102430.97;4948684;29;20078;-79
2022/07/06 01:56:19;;;;;;;6.00;4.60;;;;;;;10.85;86.26;102425.69;4953754;29;20031;-79
2022/07/06 01:58:45;;;;;;;5.90;4.40;;;;;;;10.86;86.08;102430.09;4937095;28;20124;-79
2022/07/06 02:01:13;;;;;;;6.87;4.47;;;;;;;10.83;86.13;102444.00;4954205;29;20465;-79
2022/07/06 02:03:39;;;;;;;5.73;4.23;;;;;;;10.86;86.19;102429.25;4944117;28;20038;-78
2022/07/06 02:06:05;;;;;;;7.40;4.70;;;;;;;10.81;86.23;102427.94;4944908;29;20031;-78
2022/07/06 02:08:31;;;;;;;5.97;4.70;;;;;;;10.77;86.36;102428.44;4938369;29;20056;-79
2022/07/06 02:10:57;;;;;;;7.03;4.57;;;;;;;10.72;86.55;102425.41;4953416;29;20038;-79
2022/07/06 02:13:22;;;;;;;6.07;4.47;;;;;;;10.70;86.54;102420.16;4958980;29;20456;-78
2022/07/06 02:15:47;;;;;;;7.37;4.40;;;;;;;10.68;86.67;102424.91;4955720;29;20491;-78
2022/07/06 02:18:13;;;;;;;9.33;4.93;;;;;;;10.67;86.65;102433.22;4958149;29;20035;-78
2022/07/06 02:20:38;;;;;;;5.50;4.60;;;;;;;10.63;87.25;102433.56;4951674;29;20470;-79
2022/07/06 02:23:03;;;;;;;8.40;4.97;;;;;;;10.61;87.24;102438.31;4957484;29;20037;-79
2022/07/06 02:25:29;;;;;;;7.07;5.03;;;;;;;10.56;87.56;102429.00;4949920;29;20032;-78
2022/07/06 02:27:54;;;;;;;9.47;5.30;;;;;;;10.56;87.67;102434.44;4938418;29;20363;-79
2022/07/06 02:30:20;;;;;;;9.03;5.20;;;;;;;10.50;87.84;102435.97;4954346;29;20436;-79
2022/07/06 02:32:45;;;;;;;8.53;5.60;;;;;;;10.47;87.44;102429.03;4951652;29;20028;-78
2022/07/06 02:35:10;;;;;;;9.33;5.40;;;;;;;10.51;87.83;102426.81;4941512;29;20027;-79
2022/07/06 02:37:37;;;;;;;7.60;5.37;;;;;;;10.49;87.87;102428.84;4956448;29;20478;-79
2022/07/06 02:40:02;;;;;;;9.30;5.80;;;;;;;10.50;87.87;102427.84;4957040;29;20042;-81
2022/07/06 02:42:28;;;;;;;10.33;5.90;;;;;;;10.46;88.06;102426.50;4952071;29;20031;-79
2022/07/06 02:44:53;;;;;;;11.83;5.70;;;;;;;10.44;88.41;102429.38;4956723;29;20456;-78
2022/07/06 02:47:19;;;;;;;10.03;5.73;;;;;;;10.38;88.42;102423.81;4947729;28;20040;-78
2022/07/06 02:49:44;;;;;;;11.00;6.20;;;;;;;10.37;88.46;102416.69;4932338;29;20031;-78
2022/07/06 02:52:10;;;;;;;9.10;6.10;;;;;;;10.38;88.58;102426.50;4945567;29;20024;-79
2022/07/06 02:54:35;;;;;;;9.67;6.23;;;;;;;10.36;88.38;102425.81;4952760;29;20070;-79
2022/07/06 02:57:00;;;;;;;12.77;6.40;;;;;;;10.38;88.67;102429.22;4956518;29;20039;-79
2022/07/06 02:59:26;;;;;;;9.80;5.90;;;;;;;10.35;88.76;102426.84;4943710;29;20038;-78
2022/07/06 03:01:51;;;;;;;8.20;6.07;;;;;;;10.33;88.92;102423.44;4956941;29;20046;-79
2022/07/06 03:04:16;;;;;;;11.27;6.77;;;;;;;10.22;89.06;102420.03;4956330;29;20110;-79
2022/07/06 03:06:42;;;;;;;8.73;6.30;;;;;;;10.30;89.32;102439.00;4938762;29;20031;-78
2022/07/06 03:09:07;;;;;;;12.13;6.60;;;;;;;10.28;89.10;102443.75;4946363;29;20067;-78
2022/07/06 03:11:35;;;;;;;9.00;5.93;;;;;;;10.17;89.37;102435.13;4927730;29;20115;-79
2022/07/06 03:14:02;;;;;;;8.17;6.07;;;;;;;10.18;89.51;102442.25;4936396;29;20034;-79
2022/07/06 03:16:28;;;;;;;10.67;5.67;;;;;;;10.22;89.74;102444.41;4938371;29;20407;-79
2022/07/06 03:18:53;;;;;;;11.03;6.60;;;;;;;10.23;89.82;102442.59;4941040;29;20027;-78
2022/07/06 03:21:18;;;;;;;10.47;6.10;;;;;;;10.24;89.96;102442.41;4928200;29;20052;-79
2022/07/06 03:23:44;;;;;;;9.90;6.10;;;;;;;10.22;90.13;102441.72;4954481;29;20039;-79
2022/07/06 03:26:09;;;;;;;11.63;6.30;;;;;;;10.24;90.09;102442.41;4940593;29;20089;-79
2022/07/06 03:28:34;;;;;;;10.43;6.47;;;;;;;10.25;90.29;102437.81;4940341;29;20041;-78
2022/07/06 03:31:00;;;;;;;9.57;6.57;;;;;;;10.23;90.05;102437.16;4955928;29;20058;-79
2022/07/06 03:33:25;;;;;;;10.63;6.57;;;;;;;10.25;90.03;102446.81;4939162;29;20043;-79
2022/07/06 03:35:50;;;;;;;10.33;6.10;;;;;;;10.26;90.14;102442.22;4954150;29;20019;-79
2022/07/06 03:38:16;;;;;;;9.73;6.03;;;;;;;10.26;90.09;102436.81;4957821;29;20452;-78
2022/07/06 03:40:41;;;;;;;10.27;6.30;;;;;;;10.25;90.10;102438.69;4946320;29;20524;-78
2022/07/06 03:43:06;;;;;;;11.13;6.43;;;;;;;10.26;90.17;102442.22;4957365;29;20122;-79
2022/07/06 03:45:32;;;;;;;7.73;5.97;;;;;;;10.30;90.02;102438.16;4954432;29;20042;-79
2022/07/06 03:47:57;;;;;;;11.90;6.67;;;;;;;10.31;89.99;102439.88;4939381;29;20130;-79
2022/07/06 03:50:22;;;;;;;10.80;6.67;;;;;;;10.31;90.36;102439.88;4949095;29;20034;-79
2022/07/06 03:52:48;;;;;;;10.03;6.40;;;;;;;10.33;89.99;102436.97;4929536;29;20034;-79
2022/07/06 03:55:13;;;;;;;9.47;6.57;;;;;;;10.25;90.34;102435.97;4933506;29;20118;-78
2022/07/06 03:57:40;;;;;;;8.93;6.40;;;;;;;10.30;90.10;102439.00;4951462;29;20094;-78
2022/07/06 04:00:08;;;;;;;9.33;6.80;;;;;;;10.30;90.23;102449.84;4953284;29;20089;-78
2022/07/06 04:02:33;;;;;;;10.00;7.30;;;;;;;10.29;90.30;102447.31;4955919;29;20062;-78
2022/07/06 04:04:58;;;;;;;10.47;6.80;;;;;;;10.29;90.22;102444.59;4956718;29;20397;-79
2022/07/06 04:07:25;;;;;;;10.40;6.73;;;;;;;10.22;90.10;102441.72;4954771;29;20042;-79
2022/07/06 04:09:50;;;;;;;15.07;7.00;;;;;;;10.27;90.16;102449.34;4940264;29;20039;-78
2022/07/06 04:12:16;;;;;;;11.80;6.80;;;;;;;10.11;90.61;102417.69;4956036;29;20456;-79
2022/07/06 04:14:42;;;;;;;10.17;7.03;;;;;;;10.29;90.39;102440.03;4955470;29;20111;-78
2022/07/06 04:19:51;;;;;;;12.10;7.00;;;;;;;10.39;90.28;102439.88;4941915;29;20075;-79
2022/07/06 04:22:16;;;;;;;12.57;7.10;;;;;;;10.33;90.14;102440.53;4955928;29;20031;-78
2022/07/06 04:24:42;;;;;;;10.87;7.10;;;;;;;10.35;90.31;102440.38;4955547;29;20046;-78
2022/07/06 04:27:08;;;;;;;12.83;6.97;;;;;;;10.33;90.27;102432.41;4946321;28;20030;-78
2022/07/06 04:29:33;;;;;;;10.90;6.90;;;;;;;10.34;90.18;102433.25;4955439;29;20039;-78
2022/07/06 04:31:58;;;;;;;12.83;7.17;;;;;;;10.31;90.28;102435.28;4955411;29;20158;-79
2022/07/06 04:34:24;;;;;;;13.10;6.77;;;;;;;10.28;90.16;102422.09;4955012;29;20054;-78
2022/07/06 04:36:49;;;;;;;11.00;6.80;;;;;;;10.38;90.40;102434.63;4947011;29;20046;-78
2022/07/06 04:39:14;;;;;;;10.43;6.87;;;;;;;10.38;90.93;102434.63;4949125;29;20031;-78
2022/07/06 04:41:40;;;;;;;12.53;6.97;;;;;;;10.41;90.89;102429.69;4946451;29;20048;-78
2022/07/06 04:44:05;;;;;;;12.03;7.10;;;;;;;10.45;90.72;102430.22;4938689;29;20035;-78
2022/07/06 04:46:30;;;;;;;12.07;7.27;;;;;;;10.48;90.76;102432.56;4955885;29;20032;-78
2022/07/06 04:48:56;;;;;;;10.63;6.97;;;;;;;10.54;90.51;102431.91;4956718;29;20082;-78
2022/07/06 04:51:21;;;;;;;11.73;7.07;;;;;;;10.57;90.47;102426.13;4954806;29;20078;-78
2022/07/06 04:53:46;;;;;;;11.10;7.20;;;;;;;10.66;90.44;102431.53;4954590;29;20035;-78
2022/07/06 04:56:12;;;;;;;13.20;7.40;;;;;;;10.66;90.19;102426.09;4946753;29;20090;-78
2022/07/06 04:58:37;;;;;;;10.50;6.77;;;;;;;10.77;90.11;102432.00;4944397;28;20062;-78
2022/07/06 05:01:03;;;;;;;11.80;7.17;;;;;;;10.85;90.06;102427.56;4929868;29;20039;-78
2022/07/06 05:03:28;;;;;;;9.87;6.97;;;;;;;10.94;90.21;102435.50;4955827;29;20028;-78
2022/07/06 05:05:53;;;;;;;12.10;7.10;;;;;;;11.00;90.42;102436.66;4954583;29;20098;-78
2022/07/06 05:08:19;;;;;;;10.87;6.40;;;;;;;11.03;89.41;102439.03;4954839;29;20031;-78
2022/07/06 05:10:44;;;;;;;11.50;6.90;;;;;;;11.08;89.30;102436.66;4921047;29;20480;-79
2022/07/06 05:13:09;;;;;;;11.90;6.77;;;;;;;11.12;89.07;102437.13;4955225;29;20524;-78
2022/07/06 05:15:35;;;;;;;12.63;7.17;;;;;;;11.20;89.02;102442.50;4954539;29;20090;-78
2022/07/06 05:18:00;;;;;;;12.37;6.87;;;;;;;11.28;88.51;102447.88;4949115;29;20032;-78
2022/07/06 05:20:26;;;;;;;14.10;6.93;;;;;;;11.38;88.76;102458.56;4936957;29;20106;-78
2022/07/06 05:22:51;;;;;;;12.73;6.97;;;;;;;11.37;88.29;102446.00;4945395;29;20027;-78
2022/07/06 05:25:16;;;;;;;10.17;6.30;;;;;;;11.49;87.91;102460.00;4935930;29;20042;-78
2022/07/06 05:27:42;;;;;;;12.60;6.70;;;;;;;11.55;88.07;102456.56;4954001;29;20101;-78
2022/07/06 05:30:08;;;;;;;13.47;6.43;;;;;;;11.55;87.92;102453.84;4956255;29;20027;-78
2022/07/06 05:32:33;;;;;;;9.63;6.20;;;;;;;11.66;88.10;102456.16;4955338;29;20031;-78
2022/07/06 05:34:59;;;;;;;10.93;6.20;;;;;;;11.72;87.81;102453.75;4954879;29;20035;-78
2022/07/06 05:37:24;;;;;;;10.60;5.83;;;;;;;11.77;87.30;102451.34;4951881;29;20031;-78
2022/07/06 05:39:50;;;;;;;9.60;5.73;;;;;;;11.82;87.18;102444.34;4953831;28;20042;-78
2022/07/06 05:42:15;;;;;;;11.33;5.77;;;;;;;11.90;87.07;102454.31;4935283;29;20023;-78
2022/07/06 05:44:41;;;;;;;10.97;5.53;;;;;;;12.02;87.21;102459.34;4949803;29;20380;-78
2022/07/06 05:52:34;;;;;;;8.60;5.50;;;;;;;12.35;85.91;102453.63;4954041;29;20071;-78
2022/07/06 05:55:00;;;;;;;7.80;5.10;;;;;;;12.48;86.23;102460.13;4937251;29;20044;-78
2022/07/06 05:57:26;;;;;;;9.93;5.17;;;;;;;12.61;85.84;102458.66;4955503;29;20031;-78
2022/07/06 05:59:51;;;;;;;8.23;4.73;;;;;;;12.73;84.38;102467.16;4926826;29;20039;-78
2022/07/06 06:02:16;;;;;;;9.67;4.50;;;;;;;12.90;84.21;102468.69;4928017;29;20459;-78
2022/07/06 06:04:48;;;;;;;6.80;4.20;;;;;;;13.08;83.43;102472.91;4949836;29;20031;-78
2022/07/06 06:07:13;;;;;;;7.87;4.00;;;;;;;13.18;83.32;102468.03;4941857;29;20031;-78
2022/07/06 06:09:39;;;;;;;6.70;3.80;;;;;;;13.29;81.75;102467.53;4944145;29;20130;-78
2022/07/06 06:12:04;;;;;;;5.93;3.83;;;;;;;13.32;81.88;102466.31;4948352;29;20118;-78
2022/07/06 06:14:30;;;;;;;4.03;3.40;;;;;;;13.50;81.28;102480.41;4949616;29;20031;-78
2022/07/06 06:16:55;;;;;;;4.97;3.57;;;;;;;13.61;81.74;102481.78;4954728;29;20031;-78
2022/07/06 06:19:20;;;;;;;4.13;3.57;;;;;;;13.72;80.50;102476.84;4950363;29;20035;-78
2022/07/06 06:21:46;;;;;;;8.33;3.60;;;;;;;13.91;80.56;102475.38;4948689;29;20078;-78
2022/07/06 06:24:11;;;;;;;6.73;3.20;;;;;;;14.05;80.24;102469.03;4937302;29;20131;-78
2022/07/06 06:26:37;;;;;;;8.23;3.13;;;;;;;14.15;78.86;102476.88;4938246;29;20027;-78
2022/07/06 06:29:02;;;;;;;5.50;2.93;;;;;;;14.24;78.57;102474.81;4946535;29;20063;-79
2022/07/06 06:31:27;;;;;;;4.43;2.93;;;;;;;14.27;77.98;102480.75;4935322;29;20035;-79
2022/07/06 06:33:53;;;;;;;3.87;2.70;;;;;;;14.30;77.95;102474.88;4934367;29;20043;-79
2022/07/06 06:36:18;;;;;;;4.27;2.80;;;;;;;14.35;77.64;102477.88;4933092;29;20360;-80
2022/07/06 06:38:43;;;;;;;5.13;2.90;;;;;;;14.38;77.68;102471.19;4934433;29;20046;-79
2022/07/06 06:41:09;;;;;;;3.70;2.47;;;;;;;14.43;76.71;102479.63;4917982;29;20035;-79
2022/07/06 06:43:34;;;;;;;2.77;2.10;;;;;;;14.48;76.14;102465.38;4934493;29;20655;-80
2022/07/06 06:45:59;;;;;;;5.00;2.53;;;;;;;14.51;77.58;102471.28;4934953;29;20416;-79
2022/07/06 06:48:25;;;;;;;5.13;2.73;;;;;;;14.63;77.29;102479.81;4923044;29;20031;-78
2022/07/06 06:50:50;;;;;;;5.57;2.60;;;;;;;14.72;76.48;102477.75;4952006;28;20042;-78
2022/07/06 06:53:16;;;;;;;3.90;2.43;;;;;;;14.80;76.74;102480.31;4950034;29;20047;-78
2022/07/06 06:55:41;;;;;;;2.70;2.20;;;;;;;14.93;76.17;102474.13;4955782;29;20098;-78
2022/07/06 06:58:07;;;;;;;4.47;2.10;;;;;;;15.01;74.61;102482.16;4936064;29;20019;-78
2022/07/06 07:00:32;;;;;;;3.70;1.93;;;;;;;14.97;74.39;102466.34;4944499;29;20039;-78
2022/07/06 07:02:57;;;;;;;7.33;2.10;;;;;;;15.13;74.19;102484.28;4946208;29;20345;-78
2022/07/06 07:05:23;;;;;;;2.13;1.90;;;;;;;15.24;73.49;102483.72;4933321;29;20039;-78
2022/07/06 07:07:48;;;;;;;2.93;1.90;;;;;;;15.25;72.90;102487.31;4956495;29;20518;-78
2022/07/06 07:10:14;;;;;;;5.10;1.90;;;;;;;15.32;72.25;102483.53;4922716;29;20083;-78
2022/07/06 07:12:47;;;;;;;4.90;2.00;;;;;;;15.42;73.83;102493.25;4936577;29;20110;-77
2022/07/06 07:15:13;;;;;;;2.80;1.60;;;;;;;15.50;71.47;102483.00;4937648;29;20047;-79
2022/07/06 07:17:39;;;;;;;4.73;1.70;;;;;;;15.60;71.19;102493.53;4936873;29;20359;-80
2022/07/06 07:20:11;;;;;;;5.27;1.77;;;;;;;15.61;70.38;102491.63;4936200;29;20046;-80
2022/07/06 07:22:36;;;;;;;2.63;1.80;;;;;;;15.80;71.99;102485.44;4937681;29;20046;-79
2022/07/06 07:25:02;;;;;;;5.23;1.73;;;;;;;15.82;67.66;102488.78;4936557;29;20050;-79
2022/07/06 07:27:28;;;;;;;11.43;2.23;;;;;;;16.01;69.49;102480.84;4920445;29;20039;-79
2022/07/06 07:29:53;;;;;;;4.40;1.40;;;;;;;16.09;67.00;102486.09;4920468;29;20368;-81
2022/07/06 07:32:19;;;;;;;5.27;1.60;;;;;;;16.22;66.22;102490.72;4937894;29;20417;-80
2022/07/06 07:34:45;;;;;;;3.60;1.40;;;;;;;16.26;66.71;102491.16;4935669;29;20141;-81
2022/07/06 07:37:10;;;;;;;7.03;1.50;;;;;;;16.31;66.72;102492.19;4936672;29;20065;-82
2022/07/06 07:39:36;;;;;;;3.53;1.57;;;;;;;16.47;66.63;102490.09;4936855;29;20051;-79
2022/07/06 07:42:01;;;;;;;4.90;1.40;;;;;;;16.66;67.89;102500.19;4936315;29;20129;-81
2022/07/06 07:44:27;;;;;;;3.10;1.40;;;;;;;16.78;66.54;102494.91;4937123;29;20132;-78
2022/07/06 07:46:53;;;;;;;3.30;1.60;;;;;;;16.83;65.00;102491.53;4936507;29;20077;-79
2022/07/06 07:49:19;;;;;;;3.70;1.67;;;;;;;16.98;66.98;102496.78;4936917;29;20043;-79
2022/07/06 07:51:46;;;;;;;4.73;1.50;;;;;;;16.89;63.37;102493.47;4932322;29;20039;-80
2022/07/06 07:54:12;;;;;;;3.17;1.80;;;;;;;16.94;64.32;102490.06;4936165;29;20051;-80
2022/07/06 07:56:40;;;;;;;4.57;1.83;;;;;;;17.07;65.44;102491.91;4904337;29;20058;-79
2022/07/06 07:59:05;;;;;;;5.27;1.83;;;;;;;17.21;64.30;102493.56;4935847;29;20040;-81
2022/07/06 08:01:31;;;;;;;3.77;1.87;;;;;;;17.24;63.83;102484.06;4935738;29;20352;-82
2022/07/06 08:03:56;;;;;;;4.10;1.90;;;;;;;17.33;63.35;102483.59;4936366;29;20425;-83
2022/07/06 08:06:22;;;;;;;3.93;1.80;;;;;;;17.42;64.02;102486.09;4936225;29;20035;-80
2022/07/06 08:08:48;;;;;;;3.43;1.67;;;;;;;17.41;62.02;102476.19;4935965;29;20699;-79
2022/07/06 08:11:13;;;;;;;4.30;1.80;;;;;;;17.50;62.11;102477.63;4936561;29;20099;-80
2022/07/06 08:13:38;;;;;;;5.33;1.60;;;;;;;17.39;61.17;102479.16;4936451;29;20047;-80
2022/07/06 08:16:04;;;;;;;3.27;1.47;;;;;;;17.44;63.69;102476.59;4934785;29;20047;-80
2022/07/06 08:18:29;;;;;;;3.47;1.20;;;;;;;17.45;59.40;102466.47;4936382;29;20717;-80
2022/07/06 08:20:56;;;;;;;8.30;1.60;;;;;;;17.68;59.79;102479.66;4935921;29;20113;-80
2022/07/06 08:23:22;;;;;;;6.00;1.73;;;;;;;18.14;62.08;102477.69;4920842;29;20035;-81
2022/07/06 08:25:47;;;;;;;5.70;1.10;;;;;;;18.13;57.50;102475.97;4936223;29;20480;-82
2022/07/06 08:28:13;;;;;;;2.53;0.80;;;;;;;18.60;57.88;102486.56;4936389;29;20055;-82
2022/07/06 08:30:38;;;;;;;2.38;0.90;;;;;;;18.99;56.75;102479.03;4935600;29;20095;-81
2022/07/06 08:33:04;;;;;;;3.25;0.98;;;;;;;19.30;58.99;102479.94;4936873;29;20048;-82
2022/07/06 08:35:29;;;;;;;1.95;1.05;;;;;;;19.40;55.03;102474.72;4936034;29;20074;-82
2022/07/06 08:37:54;;;;;;;3.42;0.82;;;;;;;19.31;52.46;102471.47;4919318;29;20456;-82
2022/07/06 08:40:20;;;;;;;4.05;1.00;;;;;;;19.52;55.52;102472.03;4936260;29;20499;-85
2022/07/06 08:42:48;;;;;;;9.73;1.30;;;;;;;19.55;53.33;102475.13;4935818;29;20050;-83
2022/07/06 08:45:13;;;;;;;12.35;1.45;;;;;;;19.58;52.37;102476.56;4935877;29;20077;-81
2022/07/06 08:47:41;;;;;;;3.75;0.98;;;;;;;19.69;54.95;102473.06;4926201;29;20039;-82
2022/07/06 08:50:08;;;;;;;6.18;1.20;;;;;;;20.12;53.80;102470.31;4924126;29;20031;-80
2022/07/06 08:52:34;;;;;;;2.40;0.73;;;;;;;20.29;50.57;102474.06;4949911;29;20086;-79
2022/07/06 08:55:00;;;;;;;3.17;0.90;;;;;;;20.30;52.64;102461.94;4953202;29;20028;-80
2022/07/06 08:57:25;;;;;;;12.00;1.85;;;;;;;20.09;50.80;102466.13;4948216;28;20030;-79
2022/07/06 08:59:51;;;;;;;3.60;0.95;;;;;;;19.99;49.05;102463.97;4948724;29;20468;-79
2022/07/06 09:02:17;;;;;;;1.70;0.63;;;;;;;19.79;45.52;102455.97;4953941;29;20062;-79
2022/07/06 09:04:44;;;;;;;2.28;0.68;;;;;;;19.66;47.83;102462.50;4944618;29;20031;-78
2022/07/06 09:10:31;;;;;;;2.15;0.60;;;;;;;19.94;49.79;102461.06;4941975;29;20106;-79
2022/07/06 09:13:08;;;;;;;6.20;1.02;;;;;;;20.20;48.81;102461.72;4937124;28;20360;-79
2022/07/06 09:15:35;;;;;;;1.95;0.70;;;;;;;19.98;46.08;102465.03;4953329;29;20141;-81
2022/07/06 09:18:03;;;;;;;2.25;0.50;;;;;;;19.97;45.20;102471.59;4937147;29;20019;-80
2022/07/06 09:20:29;;;;;;;4.78;0.90;;;;;;;20.04;48.19;102468.75;4946383;29;20098;-80
2022/07/06 09:23:00;;;;;;;10.00;1.00;;;;;;;20.46;47.36;102470.59;4949227;29;20110;-80
2022/07/06 09:25:26;;;;;;;4.50;0.82;;;;;;;20.34;44.74;102465.91;4955349;29;20031;-80
2022/07/06 09:31:13;;;;;;;5.65;1.00;;;;;;;20.87;47.40;102464.13;4945671;29;20606;-79
2022/07/06 09:33:39;;;;;;;3.50;1.08;;;;;;;20.75;45.94;102468.81;4955370;29;20110;-79
2022/07/06 09:36:08;;;;;;;2.55;0.75;;;;;;;20.52;46.41;102472.38;4953990;29;20035;-78
2022/07/06 09:38:33;;;;;;;2.40;0.80;;;;;;;20.32;47.13;102472.75;4938754;29;20058;-78
2022/07/06 09:40:58;;;;;;;2.92;0.80;;;;;;;20.24;51.19;102468.44;4953306;29;20456;-78
2022/07/06 09:43:24;;;;;;;2.72;0.90;;;;;;;20.06;46.18;102475.69;4948491;29;20083;-78
2022/07/06 09:45:52;;;;;;;2.35;0.90;;;;;;;19.67;46.10;102463.34;4937032;29;20042;-78
2022/07/06 09:48:23;;;;;;;2.75;0.80;;;;;;;19.80;46.14;102476.94;4942073;29;20034;-78
2022/07/06 09:50:56;;;;;;;1.08;0.70;;;;;;;19.57;47.51;102470.25;4954538;29;20038;-79
2022/07/06 09:53:25;;;;;;;3.42;0.70;;;;;;;19.64;47.58;102478.41;4952440;29;20023;-78
2022/07/06 09:55:53;;;;;;;1.00;0.68;;;;;;;19.63;45.95;102473.16;4949595;29;20032;-78
2022/07/06 09:58:19;;;;;;;2.90;0.70;;;;;;;19.76;48.94;102477.59;4954956;29;20468;-78
2022/07/06 10:00:46;;;;;;;2.33;0.82;;;;;;;19.60;45.55;102484.59;4944218;29;20027;-77
2022/07/06 10:03:13;;;;;;;1.90;0.70;;;;;;;19.44;45.58;102480.59;4941294;29;20482;-78
2022/07/06 10:05:43;;;;;;;1.02;0.70;;;;;;;19.55;47.21;102485.28;4955949;29;20028;-78
2022/07/06 10:08:10;;;;;;;1.13;0.43;;;;;;;19.49;45.07;102478.81;4955244;29;20027;-79
2022/07/06 10:10:38;;;;;;;3.58;0.75;;;;;;;19.73;45.84;102479.75;4941002;29;20039;-78
2022/07/06 10:13:07;;;;;;;1.45;0.50;;;;;;;19.81;46.18;102480.53;4953362;29;20028;-79
2022/07/06 10:15:35;;;;;;;3.38;0.70;;;;;;;19.97;46.91;102473.53;4940265;29;20035;-78
2022/07/06 10:18:02;;;;;;;1.98;0.60;;;;;;;19.69;45.00;102475.81;4953966;29;20039;-78
2022/07/06 10:20:31;;;;;;;1.50;0.60;;;;;;;20.06;45.77;102483.94;4955176;29;20083;-79
2022/07/06 10:22:59;;;;;;;1.52;0.50;;;;;;;19.82;45.71;102480.28;4953981;29;20031;-79
2022/07/06 10:25:25;;;;;;;1.00;0.45;;;;;;;20.13;46.98;102491.28;4937171;29;20078;-79
2022/07/06 10:27:51;;;;;;;1.08;0.70;;;;;;;20.09;45.96;102482.63;4951926;29;20032;-79
2022/07/06 10:30:17;;;;;;;3.92;0.70;;;;;;;20.05;48.18;102485.00;4944810;29;20363;-78
2022/07/06 10:32:45;;;;;;;2.15;0.73;;;;;;;19.98;45.54;102480.72;4950051;29;20035;-78
2022/07/06 10:35:12;;;;;;;0.93;0.70;;;;;;;20.02;47.19;102480.00;4957643;29;20031;-79
2022/07/06 10:37:38;;;;;;;1.60;0.70;;;;;;;20.15;46.83;102480.84;4957546;29;20046;-78
2022/07/06 10:42:55;;;;;;;1.55;0.70;;;;;;;20.21;45.68;102486.25;4951472;29;20058;-79
2022/07/06 10:45:46;;;;;;;1.52;0.73;;;;;;;20.43;46.94;102482.91;4954505;29;20367;-79
2022/07/06 10:48:11;;;;;;;1.50;0.63;;;;;;;20.38;47.86;102477.28;4940463;28;20440;-83
2022/07/06 10:50:45;;;;;;;2.58;1.05;;;;;;;20.64;48.04;102480.66;4937734;29;20059;-79
2022/07/06 10:53:16;;;;;;;2.17;0.75;;;;;;;20.55;46.91;102478.25;4952772;29;20039;-79
2022/07/06 10:55:47;;;;;;;2.72;0.90;;;;;;;20.85;45.48;102479.25;4949872;29;20035;-80
2022/07/06 10:58:14;;;;;;;0.88;0.52;;;;;;;20.72;45.20;102472.06;4957396;29;20055;-79
2022/07/06 11:00:55;;;;;;;2.67;0.70;;;;;;;20.84;46.67;102481.13;4956155;29;20063;-79
2022/07/06 11:03:40;;;;;;;3.38;1.17;;;;;;;20.87;46.46;102471.56;4955194;29;20039;-79
2022/07/06 11:06:12;;;;;;;3.03;0.80;;;;;;;20.72;46.34;102470.13;4955783;29;20547;-78
2022/07/06 11:08:50;;;;;;;2.17;0.63;;;;;;;20.68;47.52;102468.06;4957211;29;20035;-79
2022/07/06 11:11:21;;;;;;;1.48;0.70;;;;;;;20.44;46.06;102465.34;4956704;29;20035;-79
2022/07/06 11:14:08;;;;;;;2.83;1.25;;;;;;;20.16;44.94;102469.59;4914815;29;20036;-78
2022/07/06 11:16:46;;;;;;;4.60;0.93;;;;;;;20.31;46.46;102479.31;4949427;29;20461;-81
2022/07/06 11:19:14;;;;;;;1.23;0.82;;;;;;;20.27;44.90;102478.13;4953330;29;20043;-78
2022/07/06 11:21:56;;;;;;;1.10;0.90;;;;;;;20.22;44.41;102476.06;4942401;29;20103;-80
2022/07/06 11:24:23;;;;;;;1.30;0.82;;;;;;;20.31;46.58;102474.66;4940270;29;20023;-79
2022/07/06 11:26:50;;;;;;;2.08;0.90;;;;;;;20.39;46.14;102466.03;4951873;29;20565;-78
2022/07/06 11:29:17;;;;;;;1.33;0.80;;;;;;;20.45;44.86;102469.75;4943183;29;20035;-80
2022/07/06 11:31:45;;;;;;;1.52;0.90;;;;;;;20.45;44.21;102468.91;4941111;29;20122;-79
2022/07/06 11:34:14;;;;;;;2.67;0.90;;;;;;;20.45;45.49;102460.66;4948247;29;20127;-79
2022/07/06 11:36:40;;;;;;;1.83;0.70;;;;;;;21.00;46.63;102460.28;4952374;28;20114;-79
2022/07/06 11:39:06;;;;;;;1.70;0.40;;;;;;;20.89;46.95;102450.13;4947834;29;20039;-79
2022/07/06 11:41:32;;;;;;;5.32;0.95;;;;;;;21.42;46.10;102440.72;4954700;29;20098;-79